地図

経路データ

SID SEASON NUMBER BASIN SUBBASIN NAME ISO_TIME NATURE LAT LON WMO_WIND WMO_PRES WMO_AGENCY TRACK_TYPE DIST2LAND LANDFALL IFLAG USA_AGENCY USA_ATCF_ID USA_LAT USA_LON USA_RECORD USA_STATUS USA_WIND USA_PRES USA_SSHS USA_R34_NE USA_R34_SE USA_R34_SW USA_R34_NW USA_R50_NE USA_R50_SE USA_R50_SW USA_R50_NW USA_R64_NE USA_R64_SE USA_R64_SW USA_R64_NW USA_POCI USA_ROCI USA_RMW USA_EYE TOKYO_LAT TOKYO_LON TOKYO_GRADE TOKYO_WIND TOKYO_PRES TOKYO_R50_DIR TOKYO_R50_LONG TOKYO_R50_SHORT TOKYO_R30_DIR TOKYO_R30_LONG TOKYO_R30_SHORT TOKYO_LAND CMA_LAT CMA_LON CMA_CAT CMA_WIND CMA_PRES HKO_LAT HKO_LON HKO_CAT HKO_WIND HKO_PRES NEWDELHI_LAT NEWDELHI_LON NEWDELHI_GRADE NEWDELHI_WIND NEWDELHI_PRES NEWDELHI_CI NEWDELHI_DP NEWDELHI_POCI REUNION_LAT REUNION_LON REUNION_TYPE REUNION_WIND REUNION_PRES REUNION_TNUM REUNION_CI REUNION_RMW REUNION_R34_NE REUNION_R34_SE REUNION_R34_SW REUNION_R34_NW REUNION_R50_NE REUNION_R50_SE REUNION_R50_SW REUNION_R50_NW REUNION_R64_NE REUNION_R64_SE REUNION_R64_SW REUNION_R64_NW BOM_LAT BOM_LON BOM_TYPE BOM_WIND BOM_PRES BOM_TNUM BOM_CI BOM_RMW BOM_R34_NE BOM_R34_SE BOM_R34_SW BOM_R34_NW BOM_R50_NE BOM_R50_SE BOM_R50_SW BOM_R50_NW BOM_R64_NE BOM_R64_SE BOM_R64_SW BOM_R64_NW BOM_ROCI BOM_POCI BOM_EYE BOM_POS_METHOD BOM_PRES_METHOD NADI_LAT NADI_LON NADI_CAT NADI_WIND NADI_PRES WELLINGTON_LAT WELLINGTON_LON WELLINGTON_WIND WELLINGTON_PRES DS824_LAT DS824_LON DS824_STAGE DS824_WIND DS824_PRES TD9636_LAT TD9636_LON TD9636_STAGE TD9636_WIND TD9636_PRES TD9635_LAT TD9635_LON TD9635_WIND TD9635_PRES TD9635_ROCI NEUMANN_LAT NEUMANN_LON NEUMANN_CLASS NEUMANN_WIND NEUMANN_PRES MLC_LAT MLC_LON MLC_CLASS MLC_WIND MLC_PRES USA_GUST BOM_GUST BOM_GUST_PER REUNION_GUST REUNION_GUST_PER USA_SEAHGT USA_SEARAD_NE USA_SEARAD_SE USA_SEARAD_SW USA_SEARAD_NW STORM_SPEED STORM_DIR
1996064S12155 1996 18 SP EA ATU 1996-03-04 06:00:00 TS -12.0000 155.000 main 479 479 O___________O_ jtwc_sh SH211996 -12.0000 155.000 20 -1 -12.0000 155.000 TC 20 1 129
1996064S12155 1996 18 SP EA ATU 1996-03-04 09:00:00 TS -12.0500 155.050 main 473 483 P___________P_ SH211996 -12.0500 155.050 20 -1 -12.0500 155.050 TC 20 1 137
1996064S12155 1996 18 SP EA ATU 1996-03-04 12:00:00 TS -12.1000 155.100 main 483 483 O___________O_ jtwc_sh SH211996 -12.1000 155.100 20 -1 -12.1000 155.100 TC 20 1 137
1996064S12155 1996 18 SP EA ATU 1996-03-04 15:00:00 TS -12.1500 155.150 main 478 478 P___________P_ SH211996 -12.1500 155.150 20 -1 -12.1500 155.150 TC 20 1 137
1996064S12155 1996 18 SP EA ATU 1996-03-04 18:00:00 TS -12.2000 155.200 main 488 488 O___________O_ jtwc_sh SH211996 -12.2000 155.200 20 -1 -12.2000 155.200 TC 20 1 137
1996064S12155 1996 18 SP EA ATU 1996-03-04 21:00:00 TS -12.2500 155.250 main 483 483 P___________P_ SH211996 -12.2500 155.250 20 -1 -12.2500 155.250 TC 20 1 137
1996064S12155 1996 18 SP EA ATU 1996-03-05 00:00:00 TS -12.3000 155.300 main 493 493 O___________O_ jtwc_sh SH211996 -12.3000 155.300 20 -1 -12.3000 155.300 TC 20 1 137
1996064S12155 1996 18 SP EA ATU 1996-03-05 03:00:00 TS -12.3500 155.350 main 489 489 P___________P_ SH211996 -12.3500 155.350 20 -1 -12.3500 155.350 TC 20 1 137
1996064S12155 1996 18 SP EA ATU 1996-03-05 06:00:00 TS -12.4000 155.400 main 499 499 O___________O_ jtwc_sh SH211996 -12.4000 155.400 20 -1 -12.4000 155.400 TC 20 1 137
1996064S12155 1996 18 SP EA ATU 1996-03-05 09:00:00 TS -12.4500 155.450 main 494 494 P___________P_ SH211996 -12.4500 155.450 20 -1 -12.4500 155.450 TC 20 1 137
1996064S12155 1996 18 SP EA ATU 1996-03-05 12:00:00 TS -12.5000 155.500 main 504 504 O___________O_ jtwc_sh SH211996 -12.5000 155.500 20 -1 -12.5000 155.500 TC 20 1 138
1996064S12155 1996 18 SP EA ATU 1996-03-05 15:00:00 TS -12.5425 155.543 main 504 504 P___________P_ SH211996 -12.5425 155.543 20 -1 -12.5425 155.543 TC 20 1 137
1996064S12155 1996 18 SP EA ATU 1996-03-05 18:00:00 TS -12.6000 155.600 main 508 508 O___________O_ jtwc_sh SH211996 -12.6000 155.600 20 -1 -12.6000 155.600 TC 20 2 136
1996064S12155 1996 18 SP EA ATU 1996-03-05 21:00:00 TS -12.6925 155.693 main 513 513 P___________P_ SH211996 -12.6925 155.693 20 -1 -12.6925 155.693 TC 20 3 136
1996064S12155 1996 18 SP EA ATU 1996-03-06 00:00:00 TS -12.8000 155.800 main 518 518 O___________O_ jtwc_sh SH211996 -12.8000 155.800 20 -1 -12.8000 155.800 TC 20 3 136
1996064S12155 1996 18 SP EA ATU 1996-03-06 03:00:00 TS -12.8925 155.893 main 524 524 P___________P_ SH211996 -12.8925 155.893 20 -1 -12.8925 155.893 TC 20 3 136
1996064S12155 1996 18 SP EA ATU 1996-03-06 06:00:00 TS -13.0000 156.000 main 530 530 O___________O_ jtwc_sh SH211996 -13.0000 156.000 20 -1 -13.0000 156.000 TC 20 4 136
1996064S12155 1996 18 SP EA ATU 1996-03-06 09:00:00 TS -13.1500 156.150 main 547 544 P___________P_ SH211996 -13.1500 156.150 20 -1 -13.1500 156.150 TC 20 4 136
1996064S12155 1996 18 SP EA ATU 1996-03-06 12:00:00 TS -13.3000 156.300 main 546 546 O___________O_ jtwc_sh SH211996 -13.3000 156.300 20 -1 -13.3000 156.300 TC 20 4 136
1996064S12155 1996 18 SP EA ATU 1996-03-06 15:00:00 TS -13.4075 156.408 main 547 547 P___________P_ SH211996 -13.4075 156.408 20 -1 -13.4075 156.408 TC 20 3 136
1996064S12155 1996 18 SP EA ATU 1996-03-06 18:00:00 TS -13.5000 156.500 main 548 548 O___________O_ jtwc_sh SH211996 -13.5000 156.500 20 -1 -13.5000 156.500 TC 20 3 136
1996064S12155 1996 18 SP EA ATU 1996-03-06 21:00:00 TS -13.6000 156.600 main 550 543 P___________P_ SH211996 -13.6000 156.600 20 -1 -13.6000 156.600 TC 20 3 136
1996064S12155 1996 18 SP EA ATU 1996-03-07 00:00:00 TS -13.7000 156.700 main 552 552 O___________O_ jtwc_sh SH211996 -13.7000 156.700 20 -1 -13.7000 156.700 TC 20 3 137
1996064S12155 1996 18 SP EA ATU 1996-03-07 03:00:00 TS -13.8000 156.793 main 554 554 P___________P_ SH211996 -13.8000 156.793 20 -1 -13.8000 156.793 TC 20 3 136
1996064S12155 1996 18 SP EA ATU 1996-03-07 06:00:00 TS -13.9000 156.900 main 557 551 O___________O_ jtwc_sh SH211996 -13.9000 156.900 20 -1 -13.9000 156.900 TC 20 3 130
1996064S12155 1996 18 SP EA ATU 1996-03-07 09:00:00 TS -14.0075 157.050 main 554 554 P___________P_ SH211996 -14.0075 157.050 20 -1 -14.0075 157.050 TC 20 4 124
1996064S12155 1996 18 SP EA ATU 1996-03-07 12:00:00 TS -14.1000 157.200 main 558 553 O___________O_ jtwc_sh SH211996 -14.1000 157.200 20 -1 -14.1000 157.200 TC 20 3 121
1996064S12155 1996 18 SP EA ATU 1996-03-07 15:00:00 TS -14.1575 157.308 main 562 557 P___________P_ SH211996 -14.1575 157.308 20 -1 -14.1575 157.308 TC 20 2 117
1996064S12155 1996 18 SP EA ATU 1996-03-07 18:00:00 TS -14.2000 157.400 main 557 552 O___________O_ jtwc_sh SH211996 -14.2000 157.400 20 -1 -14.2000 157.400 TC 20 2 117
1996064S12155 1996 18 SP EA ATU 1996-03-07 21:00:00 TS -14.2500 157.500 main 552 552 P___________P_ SH211996 -14.2500 157.500 20 -1 -14.2500 157.500 TC 20 2 117
1996064S12155 1996 18 SP EA ATU 1996-03-08 00:00:00 TS -14.3000 157.600 main 557 553 O___________O_ jtwc_sh SH211996 -14.3000 157.600 20 -1 -14.3000 157.600 TC 20 2 119
1996064S12155 1996 18 SP EA ATU 1996-03-08 03:00:00 TS -14.3500 157.693 main 553 553 P___________P_ SH211996 -14.3500 157.693 20 -1 -14.3500 157.693 TC 20 2 117
1996064S12155 1996 18 SP EA ATU 1996-03-08 06:00:00 TS -14.4000 157.800 main 559 555 O___________O_ jtwc_sh SH211996 -14.4000 157.800 20 -1 -14.4000 157.800 TC 20 3 112
1996064S12155 1996 18 SP EA ATU 1996-03-08 09:00:00 TS -14.4500 157.950 main 561 557 P___________P_ SH211996 -14.4500 157.950 20 -1 -14.4500 157.950 TC 20 3 109
1996064S12155 1996 18 SP EA ATU 1996-03-08 12:00:00 TS -14.5000 158.100 main 557 554 O___________O_ jtwc_sh SH211996 -14.5000 158.100 20 -1 -14.5000 158.100 TC 20 3 113
1996064S12155 1996 18 SP EA ATU 1996-03-08 15:00:00 TS -14.5500 158.200 main 554 554 P___________P_ SH211996 -14.5500 158.200 20 -1 -14.5500 158.200 TC 20 2 117
1996064S12155 1996 18 SP EA ATU 1996-03-08 18:00:00 TS -14.6000 158.300 main 561 558 O___________O_ jtwc_sh SH211996 -14.6000 158.300 20 -1 -14.6000 158.300 TC 20 3 112
1996064S12155 1996 18 SP EA ATU 1996-03-08 21:00:00 TS -14.6425 158.443 main 558 553 P___________P_ SH211996 -14.6425 158.443 20 -1 -14.6425 158.443 TC 20 3 109
1996064S12155 1996 18 SP EA ATU 1996-03-09 00:00:00 TS -14.7000 158.600 main 556 550 O___________O_ jtwc_sh SH211996 -14.7000 158.600 20 -1 -14.7000 158.600 TC 20 3 117
1996064S12155 1996 18 SP EA ATU 1996-03-09 03:00:00 TS -14.7850 158.735 main 559 553 P___________P_ SH211996 -14.7850 158.735 20 -1 -14.7850 158.735 TC 20 4 124
1996064S12155 1996 18 SP EA ATU 1996-03-09 06:00:00 TS -14.9000 158.900 main 556 550 O___________O_ jtwc_sh SH211996 -14.9000 158.900 20 -1 -14.9000 158.900 TC 20 4 123
1996064S12155 1996 18 SP EA ATU 1996-03-09 09:00:00 TS -15.0048 159.083 main 553 548 P___________P_ SH211996 -15.0048 159.083 20 -1 -15.0048 159.083 TC 20 6 122
1996064S12155 1996 18 SP EA ATU 1996-03-09 12:00:00 TS -15.2000 159.400 main 557 552 O___________O_ jtwc_sh SH211996 -15.2000 159.400 20 -1 -15.2000 159.400 TC 20 10 123
1996064S12155 1996 18 SP EA ATU 1996-03-09 15:00:00 TS -15.5552 159.947 main 575 568 P___________P_ SH211996 -15.5552 159.947 22 -1 -15.5552 159.947 TC 22 14 125
1996064S12155 1996 18 SP MM ATU 1996-03-09 18:00:00 TS -16.0000 160.600 main 596 523 O___________O_ jtwc_sh SH211996 -16.0000 160.600 25 -1 -16.0000 160.600 TC 25 15 126
1996064S12155 1996 18 SP MM ATU 1996-03-09 21:00:00 TS -16.4348 161.200 main 523 441 P___________P_ SH211996 -16.4348 161.200 25 -1 -16.4348 161.200 TC 25 15 128
1996064S12155 1996 18 SP MM ATU 1996-03-10 00:00:00 TS -16.9000 161.800 main 441 360 O___________O_ jtwc_sh SH211996 -16.9000 161.800 25 -1 -16.9000 161.800 TC 25 15 130
1996064S12155 1996 18 SP MM ATU 1996-03-10 03:00:00 TS -17.3997 162.385 main 360 282 P___________P_ SH211996 -17.3997 162.385 25 -1 -17.3997 162.385 TC 25 15 131
1996064S12155 1996 18 SP MM ATU 1996-03-10 06:00:00 TS -17.9000 163.000 main 282 218 O___________O_ jtwc_sh SH211996 -17.9000 163.000 25 -1 -17.9000 163.000 TC 25 16 128
1996064S12155 1996 18 SP MM ATU 1996-03-10 09:00:00 TS -18.3571 163.663 main 205 157 P___________P_ SH211996 -18.3571 163.663 27 -1 -18.3571 163.663 TC 27 16 124
1996064S12155 1996 18 SP MM ATU 1996-03-10 12:00:00 TS -18.8000 164.400 main 159 138 O___________O_ jtwc_sh SH211996 -18.8000 164.400 30 -1 -18.8000 164.400 TC 30 17 121
1996064S12155 1996 18 SP MM ATU 1996-03-10 15:00:00 TS -19.2350 165.235 main 143 139 P___________P_ SH211996 -19.2350 165.235 32 -1 -19.2350 165.235 TC 32 21 119
1996064S12155 1996 18 SP MM ATU 1996-03-10 18:00:00 TS -19.8200 166.360 30 997 nadi main 167 160 O_______O___O_ jtwc_sh SH211996 -19.7000 166.100 35 0 -20.3000 167.400 30 997 -20.3000 167.400 30 997 -19.7000 166.100 TC 35 22 122
1996064S12155 1996 18 SP MM ATU 1996-03-10 21:00:00 TS -20.4083 167.198 main 167 159 P______IP___P_ SH211996 -20.2799 166.937 37 0 -20.6652 167.720 30 997 -20.6652 167.720 30 997 -20.2799 166.937 TC 37 17 128
1996064S12155 1996 18 SP MM ATU 1996-03-11 00:00:00 TS -20.8857 167.829 30 997 nadi main 163 160 O_______O___O_ jtwc_sh SH211996 -20.8000 167.700 40 0 -21.0000 168.000 30 997 -21.0000 168.000 30 997 -20.8000 167.700 TC 40 13 128
1996064S12155 1996 18 SP MM ATU 1996-03-11 03:00:00 TS -21.1984 168.290 main 174 174 P______IP___P_ SH211996 -21.1171 168.353 40 0 -21.2798 168.228 32 996 -21.2798 168.228 32 996 -21.1171 168.353 TC 40 10 122
1996064S12155 1996 18 SP MM ATU 1996-03-11 06:00:00 TS -21.4000 168.700 35 996 nadi main 196 196 O_______O___O_ jtwc_sh SH211996 -21.3000 168.900 40 0 -21.5000 168.500 35 996 -21.5000 168.500 35 996 -21.3000 168.900 TC 40 9 115
1996064S12155 1996 18 SP MM ATU 1996-03-11 09:00:00 TS -21.5662 169.157 main 236 236 P______IP___P_ SH211996 -21.4223 169.395 40 0 -21.7101 168.920 35 996 -21.7101 168.920 35 996 -21.4223 169.395 TC 40 9 107
1996064S12155 1996 18 SP MM ATU 1996-03-11 12:00:00 TS -21.6500 169.600 35 996 nadi main 276 273 O_______O___O_ jtwc_sh SH211996 -21.5000 169.800 40 0 -21.8000 169.400 35 996 -21.8000 169.400 35 996 -21.5000 169.800 TC 40 8 95
1996064S12155 1996 18 SP MM ATU 1996-03-11 15:00:00 TS -21.6287 170.005 main 316 316 P______IP___P_ SH211996 -21.5998 170.130 42 0 -21.6576 169.881 35 995 -21.6576 169.881 35 995 -21.5998 170.130 TC 42 7 86
1996064S12155 1996 18 SP MM ATU 1996-03-11 18:00:00 TS -21.6000 170.350 35 995 nadi main 357 357 O_______O___O_ jtwc_sh SH211996 -21.7000 170.400 45 0 -21.5000 170.300 35 995 -21.5000 170.300 35 995 -21.7000 170.400 TC 45 6 95
1996064S12155 1996 18 SP MM ATU 1996-03-11 21:00:00 TS -21.6849 170.634 main 375 375 P______IP___P_ SH211996 -21.8075 170.665 47 0 -21.5624 170.602 37 992 -21.5624 170.602 37 992 -21.8075 170.665 TC 47 5 113
1996064S12155 1996 18 SP MM ATU 1996-03-12 00:00:00 TS -21.8000 170.850 40 990 nadi main 404 404 O_______O___O_ jtwc_sh SH211996 -21.9000 170.900 50 0 -21.7000 170.800 40 990 -21.7000 170.800 40 990 -21.9000 170.900 TC 50 4 118
1996064S12155 1996 18 SP MM ATU 1996-03-12 03:00:00 TS -21.8712 171.011 main 413 413 P______IP___P_ SH211996 -21.9574 171.108 52 0 -21.7849 170.915 42 988 -21.7849 170.915 42 988 -21.9574 171.108 TC 52 3 118
1996064S12155 1996 18 SP MM ATU 1996-03-12 06:00:00 TS -21.9500 171.150 45 987 nadi main 434 422 O_______O___O_ jtwc_sh SH211996 -22.0000 171.300 55 0 -21.9000 171.000 45 987 -21.9000 171.000 45 987 -22.0000 171.300 TC 55 4 121
1996064S12155 1996 18 SP MM ATU 1996-03-12 09:00:00 TS -22.0563 171.344 main 442 442 P______IP___P_ SH211996 -22.0200 171.530 55 0 -22.0925 171.157 45 987 -22.0925 171.157 45 987 -22.0200 171.530 TC 55 4 128
1996064S12155 1996 18 SP MM ATU 1996-03-12 12:00:00 TS -22.2000 171.500 45 987 nadi main 463 462 O_______O___O_ jtwc_sh SH211996 -22.1000 171.700 55 0 -22.3000 171.300 45 987 -22.3000 171.300 45 987 -22.1000 171.700 TC 55 4 149
1996064S12155 1996 18 SP MM ATU 1996-03-12 15:00:00 TS -22.3737 171.555 main 473 473 P______IP___P_ SH211996 -22.3200 171.745 55 0 -22.4275 171.365 45 987 -22.4275 171.365 45 987 -22.3200 171.745 TC 55 4 175
1996064S12155 1996 18 SP MM ATU 1996-03-12 18:00:00 TS -22.6000 171.550 45 987 nadi main 473 463 O_______O___O_ jtwc_sh SH211996 -22.6000 171.700 55 0 -22.6000 171.400 45 987 -22.6000 171.400 45 987 -22.6000 171.700 TC 55 5 184
1996064S12155 1996 18 SP MM ATU 1996-03-12 21:00:00 TS -22.8775 171.518 main 466 466 P______IP___P_ SH211996 -22.8350 171.593 52 0 -22.9200 171.443 42 988 -22.9200 171.443 42 988 -22.8350 171.593 TC 52 6 184
1996064S12155 1996 18 SP MM ATU 1996-03-13 00:00:00 TS -23.2000 171.500 40 990 nadi main 472 472 O_______O___O_ jtwc_sh SH211996 -23.1000 171.500 50 0 -23.3000 171.500 40 990 -23.3000 171.500 40 990 -23.1000 171.500 TC 50 7 176
1996064S12155 1996 18 SP MM ATU 1996-03-13 03:00:00 TS -23.5500 171.556 main 489 489 P______IP___P_ SH211996 -23.4425 171.512 47 0 -23.6575 171.600 37 992 -23.6575 171.600 37 992 -23.4425 171.512 TC 47 7 169
1996064S12155 1996 18 SP MM ATU 1996-03-13 06:00:00 TS -23.9000 171.650 35 995 nadi main 512 503 O_______O___O_ jtwc_sh SH211996 -23.8000 171.600 45 0 -24.0000 171.700 35 995 -24.0000 171.700 35 995 -23.8000 171.600 TC 45 7 168
1996064S12155 1996 18 SP MM ATU 1996-03-13 09:00:00 TS -24.2018 171.711 main 524 524 P______IP___P_ SH211996 -24.1074 171.705 40 0 -24.2849 171.720 35 995 -24.3074 171.713 35 995 -24.1074 171.705 TC 40 6 163
1996064S12155 1996 18 SP MM ATU 1996-03-13 12:00:00 TS -24.4933 171.853 35 996 nadi main 556 556 O_______O___O_ jtwc_sh SH211996 -24.4000 171.900 35 0 -24.6000 171.800 35 996 -24.6000 171.800 35 996 -24.4000 171.900 TC 35 7 146
1996064S12155 1996 18 SP MM ATU 1996-03-13 15:00:00 TS -24.8026 172.156 main 598 598 P______IP___P_ SH211996 -24.7076 172.220 32 -1 -25.0178 172.047 35 996 -24.8850 172.083 32 996 -24.7076 172.220 TC 32 9 135
1996064S12155 1996 18 SP MM ATU 1996-03-13 18:00:00 TS -25.1182 172.545 30 997 wellington main 641 641 O_______O___O_ jtwc_sh SH211996 -25.0000 172.600 30 -1 -25.5000 172.400 35 997 -25.2000 172.500 30 997 -25.0000 172.600 TC 30 10 130
1996064S12155 1996 18 SP MM ATU 1996-03-13 21:00:00 TS -25.4226 172.976 main 701 701 P_______P___P_ SH211996 -25.2601 172.960 30 -1 -25.5852 172.992 30 997 -25.2601 172.960 TC 30 11 132
1996064S12155 1996 18 SP MM ATU 1996-03-14 00:00:00 TS -25.8333 173.433 30 997 wellington main 757 757 O_______O___O_ jtwc_sh SH211996 -25.5000 173.300 30 -1 -26.0000 173.500 30 997 -25.5000 173.300 TC 30 13 139
1996064S12155 1996 18 SP MM ATU 1996-03-14 03:00:00 NR -26.3997 173.908 main 835 835 ________P_____ SH211996 -1 -26.3997 173.908 30 997 TC 12 141
1996064S12155 1996 18 SP MM ATU 1996-03-14 06:00:00 NR -26.8000 174.300 30 997 wellington main 868 839 ________O_____ -1 -26.8000 174.300 30 997 10 136
1996064S12155 1996 18 SP MM ATU 1996-03-14 09:00:00 NR -27.1397 174.721 main 841 797 ________P_____ -1 -27.1397 174.721 30 997 11 135
1996064S12155 1996 18 SP MM ATU 1996-03-14 12:00:00 NR -27.6000 175.200 30 997 wellington main 797 737 ________O_____ -1 -27.6000 175.200 30 997 15 142
1996064S12155 1996 18 SP MM ATU 1996-03-14 15:00:00 NR -28.3251 175.777 main 740 672 ________P_____ -1 -28.3251 175.777 30 997 19 147
1996064S12155 1996 18 SP MM ATU 1996-03-14 18:00:00 NR -29.2000 176.400 30 997 wellington main 672 621 ________O_____ -1 -29.2000 176.400 30 997 20 150
1996064S12155 1996 18 SP MM ATU 1996-03-14 21:00:00 NR -30.0681 176.914 main 612 570 ________P_____ -1 -30.0681 176.914 30 997 21 150
1996064S12155 1996 18 SP MM ATU 1996-03-15 00:00:00 NR -31.0000 177.600 30 997 wellington main 566 552 ________O_____ -1 -31.0000 177.600 30 997 24 140
1996064S12155 1996 18 SP MM ATU 1996-03-15 03:00:00 NR -31.8736 178.707 main 555 543 ________P_____ -1 -31.8736 178.707 30 997 29 134
1996064S12155 1996 18 SP MM ATU 1996-03-15 06:00:00 NR -33.0000 180.000 30 997 wellington main 535 425 ________O_____ -1 -33.0000 180.000 30 997 35 141
1996064S12155 1996 18 SP MM ATU 1996-03-15 09:00:00 NR -34.5641 181.315 main 421 366 ________P_____ -1 -34.5641 -178.685 30 997 41 150
1996064S12155 1996 18 SP MM ATU 1996-03-15 12:00:00 NR -36.5000 182.500 30 997 wellington main 369 369 ________O_____ -1 -36.5000 -177.500 30 997 45 158
1996064S12155 1996 18 SP MM ATU 1996-03-15 15:00:00 NR -38.7713 183.433 main 435 435 ________P_____ -1 -38.7713 -176.567 32 996 47 165
1996064S12155 1996 18 SP MM ATU 1996-03-15 18:00:00 NR -41.0000 184.000 35 995 wellington main 550 550 ________O_____ -1 -41.0000 -176.000 35 995 40 172
1996064S12155 1996 18 SP MM ATU 1996-03-15 21:00:00 NR -42.7034 184.158 main 648 648 ________P_____ -1 -42.7034 -175.842 37 992 32 0
1996064S12155 1996 18 SP MM ATU 1996-03-16 00:00:00 NR -44.2000 184.000 40 990 wellington main 731 731 ________O_____ -1 -44.2000 -176.000 40 990 32 179
1996064S12155 1996 18 SP MM ATU 1996-03-16 03:00:00 NR -45.9198 184.259 main 846 846 ________P_____ -1 -45.9198 -175.741 40 990 31 186
1996064S12155 1996 18 SP MM ATU 1996-03-16 06:00:00 NR -47.3000 183.500 40 990 wellington main 889 711 ________O_____ -1 -47.3000 -176.500 40 990 36 234
1996064S12155 1996 18 SP MM ATU 1996-03-16 09:00:00 NR -48.0091 179.973 main 699 496 ________P_____ -1 -48.0091 179.973 40 990 47 261
1996064S12155 1996 18 SP MM ATU 1996-03-16 12:00:00 NR -48.0000 176.500 40 990 wellington main 489 423 ________O_____ -1 -48.0000 176.500 40 990 28 280
1996064S12155 1996 18 SP MM ATU 1996-03-16 15:00:00 NR -47.5332 175.823 main 419 417 ________P_____ -1 -47.5332 175.823 40 990 10 1
1996064S12155 1996 18 SP MM ATU 1996-03-16 18:00:00 NR -47.0000 176.500 40 990 wellington main 433 433 ________O_____ -1 -47.0000 176.500 40 990 12 59
1996064S12155 1996 18 SP MM ATU 1996-03-16 21:00:00 NR -46.8904 177.403 main 472 472 ________P_____ -1 -46.8904 177.403 37 992 14 90
1996064S12155 1996 18 SP MM ATU 1996-03-17 00:00:00 NR -47.0000 178.500 35 995 wellington main 542 542 ________O_____ -1 -47.0000 178.500 35 995 13 105
1996064S12155 1996 18 SP MM ATU 1996-03-17 03:00:00 NR -47.2112 179.209 main 598 598 ________P_____ -1 -47.2112 179.209 32 996 10 120
1996064S12155 1996 18 SP MM ATU 1996-03-17 06:00:00 NR -47.5000 179.800 30 997 wellington main 654 654 ________O_____ -1 -47.5000 179.800 30 997 8 126
1996064S12155 1996 18 SP MM ATU 1996-03-17 09:00:00 NR -47.7062 180.205 main 691 691 ________P_____ -1 -47.7062 -179.795 30 997 9 122
1996064S12155 1996 18 SP MM ATU 1996-03-17 12:00:00 NR -48.0000 181.000 30 997 wellington main 759 759 ________O_____ -1 -48.0000 -179.000 30 997 19 116
1996064S12155 1996 18 SP MM ATU 1996-03-17 15:00:00 NR -48.5442 182.814 main 901 901 ________P_____ -1 -48.5442 -177.186 30 997 28 111
1996064S12155 1996 18 SP MM ATU 1996-03-17 18:00:00 NR -49.0000 185.000 30 997 wellington main 1068 1068 ________O_____ -1 -49.0000 -175.000 30 997 27 102
1996064S12155 1996 18 SP MM ATU 1996-03-17 21:00:00 NR -49.1108 186.881 main 1197 1197 ________P_____ -1 -49.1108 -173.119 30 997 23 90
1996064S12155 1996 18 SP MM ATU 1996-03-18 00:00:00 NR -49.0000 188.500 30 997 wellington main 1301 ________O_____ -1 -49.0000 -171.500 30 997 21 84

デジタル台風データ・検索

IBTrACS Databaseについて

本データベースは、米国NOAAが公開する1842年以降の世界の熱帯低気圧のベストトラックデータアーカイブInternational Best Track Archive for Climate Stewardship (IBTrACS)を、ウェブで閲覧しやすい形式に変換したものです。

最終更新日:2021-12-06